createdAt,value
2022-10-05T00:01:52.493Z,4.77
2022-10-05T00:04:01.933Z,4.60
2022-10-05T00:06:03.923Z,5.40
2022-10-05T00:08:25.408Z,5.33
2022-10-05T00:10:28.993Z,5.50
2022-10-05T00:12:30.693Z,5.00
2022-10-05T00:14:35.770Z,5.53
2022-10-05T00:16:37.538Z,5.10
2022-10-05T00:18:40.248Z,5.50
2022-10-05T00:20:42.545Z,5.30
2022-10-05T00:22:44.184Z,4.10
2022-10-05T00:24:48.452Z,4.23
2022-10-05T00:26:54.116Z,4.17
2022-10-05T00:29:01.094Z,4.50
2022-10-05T00:31:02.883Z,3.83
2022-10-05T00:33:04.559Z,4.00
2022-10-05T00:35:06.771Z,4.30
2022-10-05T00:37:08.525Z,4.47
2022-10-05T00:39:10.279Z,4.90
2022-10-05T00:41:16.416Z,4.50
2022-10-05T00:43:38.652Z,4.83
2022-10-05T00:46:07.784Z,4.70
2022-10-05T00:48:28.361Z,5.03
2022-10-05T00:51:00.723Z,5.30
2022-10-05T00:53:26.984Z,5.77
2022-10-05T00:55:57.955Z,5.07
2022-10-05T00:58:51.048Z,5.30
2022-10-05T01:01:04.693Z,5.90
2022-10-05T01:03:56.158Z,6.33
2022-10-05T01:06:08.175Z,5.70
2022-10-05T01:08:22.587Z,5.50
2022-10-05T01:10:42.526Z,6.67
2022-10-05T01:12:55.156Z,6.33
2022-10-05T01:15:08.970Z,6.13
2022-10-05T01:17:10.547Z,5.13
2022-10-05T01:19:49.420Z,5.37
2022-10-05T01:22:01.318Z,6.00
2022-10-05T01:24:21.316Z,5.23
2022-10-05T01:26:53.252Z,5.90
2022-10-05T01:29:28.876Z,5.53
2022-10-05T01:31:55.125Z,6.07
2022-10-05T01:34:17.786Z,5.30
2022-10-05T01:36:40.605Z,5.27
2022-10-05T01:38:52.933Z,5.07
2022-10-05T01:41:03.163Z,5.50
2022-10-05T01:43:37.567Z,4.93
2022-10-05T01:46:01.954Z,5.80
2022-10-05T01:48:12.422Z,6.57
2022-10-05T01:50:17.136Z,6.27
2022-10-05T01:52:46.798Z,5.60
2022-10-05T01:54:54.248Z,6.37
2022-10-05T01:57:14.424Z,5.70
2022-10-05T01:59:28.305Z,6.47
2022-10-05T02:02:01.834Z,6.40
2022-10-05T02:04:29.520Z,6.30
2022-10-05T02:06:41.749Z,5.90
2022-10-05T02:08:49.578Z,6.03
2022-10-05T02:11:00.732Z,6.10
2022-10-05T02:13:15.818Z,5.90
2022-10-05T02:15:24.672Z,5.50
2022-10-05T02:17:35.393Z,4.80
2022-10-05T02:19:48.535Z,4.47
2022-10-05T02:22:05.218Z,5.17
2022-10-05T02:24:18.387Z,4.23
2022-10-05T02:26:21.174Z,4.20
2022-10-05T02:28:33.485Z,4.20
2022-10-05T02:30:42.215Z,3.60
2022-10-05T02:33:00.240Z,4.10
2022-10-05T02:35:07.414Z,4.40
2022-10-05T02:37:27.614Z,4.10
2022-10-05T02:39:52.675Z,3.60
2022-10-05T02:42:35.082Z,3.60
2022-10-05T02:45:06.239Z,3.50
2022-10-05T02:47:15.437Z,3.47
2022-10-05T02:49:32.459Z,3.80
2022-10-05T02:51:51.047Z,3.60
2022-10-05T02:54:04.602Z,3.50
2022-10-05T02:56:54.474Z,3.50
2022-10-05T02:59:16.651Z,3.27
2022-10-05T03:01:27.794Z,3.53
2022-10-05T03:03:44.789Z,3.50
2022-10-05T03:05:48.193Z,4.33
2022-10-05T03:08:00.889Z,3.70
2022-10-05T03:10:14.821Z,4.37
2022-10-05T03:12:39.926Z,4.60
2022-10-05T03:15:10.691Z,4.20
2022-10-05T03:17:20.679Z,4.10
2022-10-05T03:19:49.346Z,4.90
2022-10-05T03:22:25.165Z,4.97
2022-10-05T03:24:35.994Z,5.30
2022-10-05T03:26:46.354Z,5.80
2022-10-05T03:29:15.893Z,5.60
2022-10-05T03:31:45.164Z,5.57
2022-10-05T03:33:53.202Z,6.40
2022-10-05T03:36:00.946Z,6.80
2022-10-05T03:38:18.410Z,6.33
2022-10-05T03:40:29.466Z,7.60
2022-10-05T03:42:46.955Z,8.40
2022-10-05T03:45:04.029Z,8.80
2022-10-05T03:47:15.943Z,8.57
2022-10-05T03:49:23.886Z,7.60
2022-10-05T03:51:32.598Z,8.67
2022-10-05T03:53:43.781Z,7.30
2022-10-05T03:56:03.258Z,6.60
2022-10-05T03:58:21.396Z,7.43
2022-10-05T04:00:23.801Z,7.50
2022-10-05T04:02:31.081Z,7.83
2022-10-05T04:04:47.039Z,8.10
2022-10-05T04:06:52.173Z,8.97
2022-10-05T04:09:04.338Z,10.13
2022-10-05T04:11:15.450Z,9.10
2022-10-05T04:13:40.215Z,8.00
2022-10-05T04:15:49.978Z,8.20
2022-10-05T04:17:58.327Z,8.40
2022-10-05T04:20:15.151Z,8.93
2022-10-05T04:22:22.469Z,8.30
2022-10-05T04:25:01.535Z,7.70
2022-10-05T04:27:12.476Z,6.67
2022-10-05T04:29:36.085Z,6.80
2022-10-05T04:32:22.029Z,5.93
2022-10-05T04:34:45.092Z,5.90
2022-10-05T04:37:00.281Z,5.80
2022-10-05T04:39:26.319Z,5.20
2022-10-05T04:41:43.167Z,4.93
2022-10-05T04:43:53.571Z,4.37
2022-10-05T04:46:07.490Z,4.17
2022-10-05T04:48:27.998Z,4.47
2022-10-05T04:50:38.419Z,4.30
2022-10-05T04:52:57.768Z,4.20
2022-10-05T04:54:59.449Z,5.03
2022-10-05T04:57:11.463Z,4.47
2022-10-05T04:59:39.033Z,4.63
2022-10-05T05:02:06.622Z,4.50
2022-10-05T05:04:20.043Z,4.80
2022-10-05T05:06:43.900Z,4.10
2022-10-05T05:09:08.212Z,4.57
2022-10-05T05:11:41.615Z,4.77
2022-10-05T05:13:56.685Z,4.20
2022-10-05T05:16:16.857Z,4.57
2022-10-05T05:18:37.073Z,4.70
2022-10-05T05:20:53.888Z,4.73
2022-10-05T05:23:22.202Z,4.23
2022-10-05T05:25:47.948Z,4.33
2022-10-05T05:27:59.680Z,4.40
2022-10-05T05:30:23.814Z,4.90
2022-10-05T05:32:46.949Z,4.70
2022-10-05T05:35:16.674Z,4.90
2022-10-05T05:37:36.073Z,4.43
2022-10-05T05:40:03.113Z,4.53
2022-10-05T05:42:34.258Z,4.50
2022-10-05T05:44:48.097Z,4.50
2022-10-05T05:47:16.931Z,4.97
2022-10-05T05:49:29.445Z,4.60
2022-10-05T05:51:37.266Z,4.37
2022-10-05T05:53:45.475Z,4.40
2022-10-05T05:55:54.996Z,5.00
2022-10-05T05:57:59.042Z,5.00
2022-10-05T06:00:13.095Z,4.97
2022-10-05T06:02:19.849Z,4.70
2022-10-05T06:04:45.774Z,4.57
2022-10-05T06:06:51.173Z,4.63
2022-10-05T06:09:03.373Z,4.80
2022-10-05T06:11:21.869Z,4.30
2022-10-05T06:13:44.289Z,3.67
2022-10-05T06:16:04.741Z,3.83
2022-10-05T06:18:13.765Z,3.50
2022-10-05T06:20:30.345Z,2.73
2022-10-05T06:22:42.851Z,3.37
2022-10-05T06:25:04.766Z,3.93
2022-10-05T06:27:55.974Z,2.90
2022-10-05T06:30:17.435Z,3.13
2022-10-05T06:32:46.102Z,3.30
2022-10-05T06:34:55.977Z,3.30
2022-10-05T06:37:03.909Z,3.30
2022-10-05T06:39:27.207Z,3.40
2022-10-05T06:41:54.407Z,2.93
2022-10-05T06:44:22.257Z,3.07
2022-10-05T06:46:34.267Z,3.30
2022-10-05T06:48:50.997Z,3.33
2022-10-05T06:51:23.232Z,3.20
2022-10-05T06:53:33.895Z,3.40
2022-10-05T06:55:41.398Z,3.30
2022-10-05T06:58:15.034Z,3.00
2022-10-05T07:00:24.712Z,3.10
2022-10-05T07:02:50.554Z,3.30
2022-10-05T07:05:03.162Z,3.83
2022-10-05T07:07:17.234Z,3.13
2022-10-05T07:09:31.815Z,2.80
2022-10-05T07:11:48.156Z,3.33
2022-10-05T07:14:27.193Z,2.83
2022-10-05T07:16:47.466Z,3.30
2022-10-05T07:18:55.687Z,3.07
2022-10-05T07:21:28.085Z,3.00
2022-10-05T07:23:41.181Z,2.93
2022-10-05T07:26:09.506Z,2.80
2022-10-05T07:28:34.838Z,3.00
2022-10-05T07:31:15.467Z,3.17
2022-10-05T07:33:24.031Z,2.80
2022-10-05T07:36:21.732Z,3.30
2022-10-05T07:38:32.918Z,2.80
2022-10-05T07:40:44.858Z,2.77
2022-10-05T07:43:03.096Z,3.30
2022-10-05T07:45:29.228Z,3.13
2022-10-05T07:47:48.118Z,2.97
2022-10-05T07:50:07.409Z,3.50
2022-10-05T07:52:23.092Z,3.10
2022-10-05T07:54:38.023Z,2.90
2022-10-05T07:56:47.000Z,2.93
2022-10-05T07:58:56.927Z,3.00
2022-10-05T08:01:12.961Z,3.07
2022-10-05T08:03:24.173Z,3.33
2022-10-05T08:05:27.213Z,3.10
2022-10-05T08:07:31.804Z,3.10
2022-10-05T08:09:47.242Z,3.70
2022-10-05T08:11:53.540Z,3.30
2022-10-05T08:14:12.162Z,3.10
2022-10-05T08:16:14.784Z,3.40
2022-10-05T08:18:37.501Z,3.40
2022-10-05T08:20:49.640Z,3.33
2022-10-05T08:22:59.354Z,3.20
2022-10-05T08:25:09.783Z,2.80
2022-10-05T08:27:38.251Z,3.30
2022-10-05T08:29:58.694Z,3.07
2022-10-05T08:32:11.812Z,2.93
2022-10-05T08:34:31.147Z,3.43
2022-10-05T08:37:12.830Z,3.50
2022-10-05T08:39:18.767Z,3.20
2022-10-05T08:41:59.540Z,3.33
2022-10-05T08:44:04.403Z,3.17
2022-10-05T08:46:27.772Z,2.80
2022-10-05T08:48:32.195Z,3.50
2022-10-05T08:50:42.549Z,3.90
2022-10-05T08:53:12.323Z,2.93
2022-10-05T08:55:44.670Z,3.27
2022-10-05T08:58:20.916Z,4.73
2022-10-05T09:00:47.171Z,2.80
2022-10-05T09:03:23.928Z,3.13
2022-10-05T09:05:28.688Z,2.93
2022-10-05T09:07:54.075Z,3.03
2022-10-05T09:10:16.576Z,2.57
2022-10-05T09:12:54.344Z,2.83
2022-10-05T09:15:29.344Z,3.00
2022-10-05T09:17:51.535Z,2.90
2022-10-05T09:20:15.071Z,2.60
2022-10-05T09:22:24.037Z,3.10
2022-10-05T09:24:46.259Z,3.10
2022-10-05T09:27:12.346Z,3.20
2022-10-05T09:29:25.976Z,2.87
2022-10-05T09:32:01.203Z,4.20
2022-10-05T09:34:22.253Z,2.40
2022-10-05T09:36:39.041Z,3.00
2022-10-05T09:39:13.686Z,2.70
2022-10-05T09:41:24.381Z,2.15
2022-10-05T09:43:53.189Z,2.40
2022-10-05T09:46:20.010Z,2.88
2022-10-05T09:48:45.690Z,2.70
2022-10-05T09:51:10.613Z,2.88
2022-10-05T09:53:50.220Z,2.75
2022-10-05T09:58:49.781Z,2.80
2022-10-05T10:01:32.637Z,2.70
2022-10-05T10:03:53.642Z,2.67
2022-10-05T10:06:11.114Z,2.20
2022-10-05T10:08:47.092Z,2.85
2022-10-05T10:10:48.715Z,2.40
2022-10-05T10:12:56.973Z,2.83
2022-10-05T10:15:27.741Z,2.77
2022-10-05T10:17:41.175Z,2.80
2022-10-05T10:19:45.812Z,2.50
2022-10-05T10:22:09.012Z,2.40
2022-10-05T10:24:29.307Z,2.47
2022-10-05T10:27:08.634Z,2.10
2022-10-05T10:29:43.640Z,2.40
2022-10-05T10:32:07.138Z,2.40
2022-10-05T10:34:37.751Z,2.23
2022-10-05T10:36:57.869Z,2.77
2022-10-05T10:39:25.866Z,2.10
2022-10-05T10:41:49.205Z,2.20
2022-10-05T10:44:26.928Z,2.20
2022-10-05T10:46:53.868Z,2.60
2022-10-05T10:49:32.832Z,2.30
2022-10-05T10:52:05.213Z,2.33
2022-10-05T10:54:40.677Z,2.37
2022-10-05T10:56:58.298Z,2.03
2022-10-05T10:59:30.782Z,2.30
2022-10-05T11:02:02.326Z,2.27
2022-10-05T11:04:12.775Z,2.07
2022-10-05T11:06:33.000Z,2.10
2022-10-05T11:09:08.165Z,2.23
2022-10-05T11:11:24.965Z,2.37
2022-10-05T11:13:48.498Z,1.87
2022-10-05T11:16:18.719Z,2.00
2022-10-05T11:18:58.482Z,2.10
2022-10-05T11:21:12.068Z,2.40
2022-10-05T11:23:29.573Z,2.50
2022-10-05T11:25:38.401Z,1.93
2022-10-05T11:28:27.533Z,2.10
2022-10-05T11:30:50.478Z,2.50
2022-10-05T11:33:26.126Z,2.00
2022-10-05T11:35:59.688Z,2.40
2022-10-05T11:38:30.608Z,2.33
2022-10-05T11:40:58.092Z,2.47
2022-10-05T11:43:21.324Z,2.53
2022-10-05T11:45:27.215Z,2.20
2022-10-05T11:47:45.711Z,2.10
2022-10-05T11:50:05.598Z,2.00
2022-10-05T11:52:18.888Z,2.20
2022-10-05T11:55:09.461Z,2.00
2022-10-05T11:57:19.994Z,2.33
2022-10-05T11:59:40.097Z,2.57
2022-10-05T12:01:52.400Z,2.13
2022-10-05T12:04:12.619Z,2.20
2022-10-05T12:06:35.348Z,2.10
2022-10-05T12:09:07.981Z,1.85
2022-10-05T12:11:35.626Z,2.20
2022-10-05T12:14:11.398Z,1.80
2022-10-05T12:16:28.785Z,1.92
2022-10-05T12:18:30.991Z,2.47
2022-10-05T12:20:46.428Z,2.20
2022-10-05T12:23:02.804Z,1.80
2022-10-05T12:25:17.982Z,2.45
2022-10-05T12:27:26.873Z,2.20
2022-10-05T12:29:33.393Z,2.00
2022-10-05T12:31:49.141Z,1.95
2022-10-05T12:34:02.959Z,2.28
2022-10-05T12:36:15.233Z,1.98
2022-10-05T12:38:24.872Z,2.00
2022-10-05T12:40:35.523Z,1.98
2022-10-05T12:43:09.684Z,2.08
2022-10-05T12:45:22.514Z,2.03
2022-10-05T12:47:43.014Z,1.67
2022-10-05T12:49:58.306Z,1.88
2022-10-05T12:52:04.833Z,1.90
2022-10-05T12:54:40.432Z,2.13
2022-10-05T12:56:57.635Z,2.00
2022-10-05T12:59:22.348Z,1.80
2022-10-05T13:01:39.071Z,2.03
2022-10-05T13:04:02.017Z,1.98
2022-10-05T13:06:17.651Z,1.80
2022-10-05T13:09:03.905Z,2.35
2022-10-05T13:11:26.465Z,2.30
2022-10-05T13:13:46.567Z,2.10
2022-10-05T13:16:17.758Z,1.92
2022-10-05T13:18:59.204Z,2.20
2022-10-05T13:21:20.774Z,2.25
2022-10-05T13:23:43.580Z,2.15
2022-10-05T13:26:03.861Z,1.90
2022-10-05T13:28:15.077Z,1.85
2022-10-05T13:30:20.115Z,2.00
2022-10-05T13:32:24.454Z,2.05
2022-10-05T13:34:56.856Z,2.03
2022-10-05T13:37:20.267Z,2.38
2022-10-05T13:39:30.491Z,2.10
2022-10-05T13:42:10.809Z,1.77
2022-10-05T13:44:22.991Z,2.03
2022-10-05T13:46:38.176Z,2.08
2022-10-05T13:49:21.718Z,2.10
2022-10-05T13:51:27.764Z,1.73
2022-10-05T13:53:49.611Z,1.70
2022-10-05T13:56:16.187Z,1.40
2022-10-05T13:58:42.920Z,1.65
2022-10-05T14:00:53.601Z,1.23
2022-10-05T14:02:57.598Z,1.30
2022-10-05T14:05:26.759Z,1.42
2022-10-05T14:07:37.464Z,1.30
2022-10-05T14:09:49.390Z,1.40
2022-10-05T14:11:56.729Z,1.20
2022-10-05T14:14:10.077Z,1.13
2022-10-05T14:16:23.630Z,1.10
2022-10-05T14:18:32.656Z,1.48
2022-10-05T14:20:35.167Z,1.13
2022-10-05T14:22:42.142Z,1.40
2022-10-05T14:25:07.464Z,1.40
2022-10-05T14:27:27.739Z,1.30
2022-10-05T14:29:38.073Z,1.67
2022-10-05T14:32:07.471Z,1.75
2022-10-05T14:34:34.967Z,1.30
2022-10-05T14:36:40.139Z,1.47
2022-10-05T14:38:52.683Z,1.30
2022-10-05T14:41:19.713Z,1.60
2022-10-05T14:43:21.683Z,1.50
2022-10-05T14:45:33.255Z,1.97
2022-10-05T14:48:00.011Z,1.70
2022-10-05T14:50:15.992Z,1.50
2022-10-05T14:52:34.671Z,1.50
2022-10-05T14:54:41.127Z,1.27
2022-10-05T14:56:53.155Z,1.60
2022-10-05T14:59:01.893Z,1.50
2022-10-05T15:01:39.172Z,1.60
2022-10-05T15:03:59.476Z,1.17
2022-10-05T15:06:03.668Z,1.60
2022-10-05T15:08:56.803Z,1.40
2022-10-05T15:11:07.581Z,1.63
2022-10-05T15:13:22.572Z,1.50
2022-10-05T15:15:42.234Z,1.37
2022-10-05T15:17:52.541Z,1.70
2022-10-05T15:20:17.106Z,1.53
2022-10-05T15:22:48.039Z,1.83
2022-10-05T15:24:57.783Z,1.93
2022-10-05T15:27:02.624Z,1.57
2022-10-05T15:29:22.284Z,1.83
2022-10-05T15:31:30.029Z,2.30
2022-10-05T15:33:38.074Z,2.00
2022-10-05T15:36:15.942Z,1.97
2022-10-05T15:38:25.838Z,1.47
2022-10-05T15:40:39.635Z,1.63
2022-10-05T15:42:43.023Z,1.60
2022-10-05T15:44:54.863Z,1.73
2022-10-05T15:47:02.234Z,1.77
2022-10-05T15:49:12.995Z,1.77
2022-10-05T15:51:23.514Z,1.50
2022-10-05T15:53:43.756Z,1.87
2022-10-05T15:56:04.353Z,1.60
2022-10-05T15:58:35.975Z,1.70
2022-10-05T16:01:01.605Z,1.60
2022-10-05T16:03:45.743Z,1.60
2022-10-05T16:06:10.435Z,1.90
2022-10-05T16:08:47.458Z,1.73
2022-10-05T16:10:49.232Z,2.30
2022-10-05T16:13:14.361Z,2.17
2022-10-05T16:15:48.624Z,1.90
2022-10-05T16:18:18.368Z,1.60
2022-10-05T16:20:38.615Z,1.93
2022-10-05T16:23:09.204Z,1.80
2022-10-05T16:25:22.110Z,1.83
2022-10-05T16:27:58.006Z,2.10
2022-10-05T16:30:09.454Z,1.80
2022-10-05T16:32:39.167Z,1.93
2022-10-05T16:35:02.380Z,1.93
2022-10-05T16:37:25.603Z,1.77
2022-10-05T16:40:02.280Z,1.90
2022-10-05T16:42:18.775Z,2.00
2022-10-05T16:44:49.925Z,2.03
2022-10-05T16:47:02.603Z,2.33
2022-10-05T16:49:46.322Z,2.43
2022-10-05T16:51:59.032Z,2.10
2022-10-05T16:54:09.691Z,2.10
2022-10-05T16:56:25.233Z,1.97
2022-10-05T16:58:38.750Z,1.83
2022-10-05T17:01:10.964Z,2.50
2022-10-05T17:03:20.734Z,1.70
2022-10-05T17:05:25.328Z,1.70
2022-10-05T17:07:58.367Z,2.00
2022-10-05T17:10:28.075Z,1.50
2022-10-05T17:12:32.655Z,1.97
2022-10-05T17:14:40.110Z,1.77
2022-10-05T17:17:04.330Z,1.80
2022-10-05T17:19:26.985Z,1.70
2022-10-05T17:21:38.090Z,1.70
2022-10-05T17:24:12.285Z,1.87
2022-10-05T17:26:23.095Z,1.60
2022-10-05T17:28:37.198Z,1.60
2022-10-05T17:31:18.792Z,1.63
2022-10-05T17:33:34.236Z,1.73
2022-10-05T17:36:09.206Z,1.60
2022-10-05T17:38:17.204Z,2.03
2022-10-05T17:40:38.597Z,1.50
2022-10-05T17:42:40.288Z,1.50
2022-10-05T17:44:41.911Z,1.43
2022-10-05T17:46:47.936Z,1.50
2022-10-05T17:48:49.745Z,1.60
2022-10-05T17:51:10.226Z,1.60
2022-10-05T17:53:40.211Z,1.70
2022-10-05T17:55:46.148Z,1.87
2022-10-05T17:57:47.870Z,1.67
2022-10-05T17:59:58.037Z,1.17
2022-10-05T18:02:38.586Z,1.30
2022-10-05T18:04:42.253Z,1.50
2022-10-05T18:07:00.166Z,1.40
2022-10-05T18:09:16.787Z,1.40
2022-10-05T18:11:36.723Z,1.90
2022-10-05T18:13:50.244Z,1.63
2022-10-05T18:15:52.128Z,1.23
2022-10-05T18:18:01.337Z,1.80
2022-10-05T18:20:18.224Z,1.50
2022-10-05T18:22:20.824Z,1.40
2022-10-05T18:24:40.230Z,1.57
2022-10-05T18:27:06.978Z,1.90
2022-10-05T18:29:40.352Z,1.47
2022-10-05T18:32:02.804Z,1.90
2022-10-05T18:34:28.986Z,1.57
2022-10-05T18:36:38.016Z,1.50
2022-10-05T18:39:07.467Z,1.50
2022-10-05T18:41:20.481Z,1.30
2022-10-05T18:43:29.080Z,1.43
2022-10-05T18:45:49.395Z,1.80
2022-10-05T18:48:09.275Z,1.50
2022-10-05T18:50:33.545Z,1.73
2022-10-05T18:52:41.082Z,1.93
2022-10-05T18:54:42.786Z,1.70
2022-10-05T18:56:49.986Z,1.67
2022-10-05T18:59:32.095Z,1.50
2022-10-05T19:01:37.027Z,1.80
2022-10-05T19:03:48.997Z,1.73
2022-10-05T19:06:04.459Z,1.60
2022-10-05T19:08:39.608Z,1.70
2022-10-05T19:10:44.727Z,2.00
2022-10-05T19:13:22.320Z,1.37
2022-10-05T19:15:26.728Z,2.60
2022-10-05T19:18:06.265Z,1.60
2022-10-05T19:20:20.416Z,1.60
2022-10-05T19:22:57.610Z,1.90
2022-10-05T19:25:02.229Z,1.67
2022-10-05T19:27:26.146Z,1.67
2022-10-05T19:30:11.763Z,1.83
2022-10-05T19:33:05.033Z,3.20
2022-10-05T19:35:26.905Z,1.70
2022-10-05T19:37:59.012Z,1.70
2022-10-05T19:40:16.442Z,1.70
2022-10-05T19:42:59.067Z,1.87
2022-10-05T19:45:22.992Z,1.67
2022-10-05T19:47:44.869Z,1.73
2022-10-05T19:49:58.620Z,1.50
2022-10-05T19:52:01.102Z,2.20
2022-10-05T19:54:13.479Z,1.50
2022-10-05T19:56:26.699Z,1.70
2022-10-05T19:58:31.414Z,1.83
2022-10-05T20:00:35.332Z,1.80
2022-10-05T20:02:41.796Z,1.70
2022-10-05T20:04:48.415Z,2.20
2022-10-05T20:06:50.054Z,2.70
2022-10-05T20:08:53.679Z,2.00
2022-10-05T20:11:27.633Z,1.93
2022-10-05T20:13:33.353Z,2.27
2022-10-05T20:15:54.841Z,2.40
2022-10-05T20:18:15.055Z,1.93
2022-10-05T20:20:35.017Z,2.43
2022-10-05T20:22:46.252Z,2.17
2022-10-05T20:24:52.974Z,2.07
2022-10-05T20:27:05.697Z,1.77
2022-10-05T20:29:09.193Z,2.30
2022-10-05T20:31:10.889Z,2.40
2022-10-05T20:33:14.662Z,2.13
2022-10-05T20:35:18.130Z,2.13
2022-10-05T20:37:20.171Z,2.50
2022-10-05T20:39:22.006Z,2.10
2022-10-05T20:41:23.699Z,2.60
2022-10-05T20:43:25.354Z,2.17
2022-10-05T20:45:26.979Z,1.70
2022-10-05T20:47:28.666Z,2.00
2022-10-05T20:49:31.716Z,2.00
2022-10-05T20:51:33.368Z,2.40
2022-10-05T20:53:34.980Z,2.27
2022-10-05T20:55:36.847Z,2.30
2022-10-05T20:57:42.082Z,2.10
2022-10-05T20:59:44.150Z,2.07
2022-10-05T21:01:48.072Z,2.20
2022-10-05T21:03:52.943Z,2.40
2022-10-05T21:05:54.582Z,2.30
2022-10-05T21:07:56.355Z,2.43
2022-10-05T21:09:58.098Z,2.00
2022-10-05T21:11:59.777Z,2.03
2022-10-05T21:14:05.569Z,2.00
2022-10-05T21:16:08.788Z,2.50
2022-10-05T21:18:10.495Z,1.90
2022-10-05T21:20:12.281Z,2.30
2022-10-05T21:22:14.040Z,2.37
2022-10-05T21:24:15.927Z,2.23
2022-10-05T21:26:17.638Z,2.33
2022-10-05T21:28:19.322Z,2.57
2022-10-05T21:30:21.046Z,2.10
2022-10-05T21:32:22.795Z,2.10
2022-10-05T21:34:24.505Z,2.50
2022-10-05T21:36:26.104Z,2.20
2022-10-05T21:38:28.672Z,2.37
2022-10-05T21:40:30.623Z,2.20
2022-10-05T21:42:32.449Z,3.07
2022-10-05T21:44:34.193Z,2.00
2022-10-05T21:46:37.254Z,2.10
2022-10-05T21:48:40.019Z,1.93
2022-10-05T21:50:42.178Z,2.43
2022-10-05T21:52:44.032Z,2.30
2022-10-05T21:54:46.841Z,2.23
2022-10-05T21:56:51.835Z,2.27
2022-10-05T21:58:53.780Z,2.30
2022-10-05T22:00:55.414Z,2.30
2022-10-05T22:02:57.120Z,2.20
2022-10-05T22:04:58.818Z,3.23
2022-10-05T22:07:01.101Z,1.90
2022-10-05T22:09:04.486Z,1.97
2022-10-05T22:11:11.930Z,2.20
2022-10-05T22:13:13.840Z,2.10
2022-10-05T22:15:15.497Z,2.40
2022-10-05T22:17:27.299Z,2.03
2022-10-05T22:19:29.173Z,2.10
2022-10-05T22:21:32.806Z,1.80
2022-10-05T22:23:36.118Z,2.20
2022-10-05T22:25:38.673Z,2.60
2022-10-05T22:27:40.434Z,2.37
2022-10-05T22:29:42.600Z,2.60
2022-10-05T22:31:48.416Z,2.17
2022-10-05T22:33:50.375Z,1.90
2022-10-05T22:35:52.425Z,2.13
2022-10-05T22:37:54.075Z,2.20
2022-10-05T22:39:55.693Z,1.93
2022-10-05T22:41:57.949Z,2.17
2022-10-05T22:44:00.299Z,2.30
2022-10-05T22:46:10.834Z,2.03
2022-10-05T22:48:12.701Z,2.30
2022-10-05T22:50:14.434Z,1.90
2022-10-05T22:52:16.112Z,2.30
2022-10-05T22:54:18.294Z,2.30
2022-10-05T22:56:20.167Z,2.20
2022-10-05T22:58:21.908Z,2.20
2022-10-05T23:00:35.271Z,2.20
2022-10-05T23:02:45.451Z,1.87
2022-10-05T23:04:47.209Z,2.27
2022-10-05T23:06:48.828Z,2.07
2022-10-05T23:08:50.563Z,2.27
2022-10-05T23:10:52.707Z,2.43
2022-10-05T23:13:00.528Z,2.60
2022-10-05T23:15:03.439Z,2.50
2022-10-05T23:17:05.183Z,2.27
2022-10-05T23:19:06.957Z,1.90
2022-10-05T23:21:10.182Z,2.40
2022-10-05T23:23:11.853Z,2.70
2022-10-05T23:25:14.069Z,1.90
2022-10-05T23:27:15.747Z,2.27
2022-10-05T23:29:17.406Z,2.30
2022-10-05T23:31:24.591Z,2.10
2022-10-05T23:33:26.497Z,2.50
2022-10-05T23:35:28.172Z,2.73
2022-10-05T23:37:29.795Z,2.10
2022-10-05T23:39:31.439Z,2.17
2022-10-05T23:41:33.164Z,2.40
2022-10-05T23:43:35.236Z,2.23
2022-10-05T23:45:36.934Z,3.20
2022-10-05T23:47:39.887Z,2.53
2022-10-05T23:49:41.922Z,2.57
2022-10-05T23:51:44.922Z,1.90
2022-10-05T23:53:46.545Z,2.40
2022-10-05T23:55:55.118Z,2.40
2022-10-05T23:57:56.738Z,2.73
2022-10-05T23:59:58.457Z,2.77
